Terminal Aerodrome Forecast
Issued by NWS

Home | Current Version | Previous Version | Text Only | Print | Product List | Glossary On
Versions: 1 2 3 4 5 6 7 8 9 10 11 12 13 14
535
FTUS44 KMAF 261724
TAFFST
TAF
KFST 261724Z 2618/2718 08010KT P6SM SCT090 BKN150
     FM270100 15010KT P6SM SCT100 BKN150=

USA.gov is the U.S. government's official web portal to all federal, state and local government web resources and services.